Cozumel, Mexico

3:06 AM EST on July 24, 2016 (GMT -0500)
APRSWXNET | | Change Station

Elev 13 ft 20.50 °N, 86.96 °W | Updated 3 hours ago

Partly Cloudy
Partly Cloudy
81 °F
Feels Like 88 °F
N
0
Wind Variable Wind from East
Gusts 0.0 mph

Today
High -- | Low -- °F
--% Chance of Precip.
Yesterday
High -- | Low -- °F
Precip. -- in
Pressure 29.97 in
Visibility 7.0 miles
Clouds Few 1500 ft
Heat Index 88 °F
Dew Point 77 °F
Humidity 89%
Rainfall in
Snow Depth Not available.
6:19 AM 7:28 PM
Waning Gibbous, 78% visible
METAR MMCZ 240749Z 00000KT 7SM FEW015 23/23 A2997 RMK 8/500
Pressure 29.97 in
Visibility 7.0 miles
Clouds Few 1500 ft
Heat Index 88 °F
Dew Point 77 °F
Humidity 89%
Rainfall in
Snow Depth Not available.
6:19 AM 7:28 PM
Waning Gibbous, 78% visible
METAR MMCZ 240749Z 00000KT 7SM FEW015 23/23 A2997 RMK 8/500

10-Day Weather Forecast

No radar image for this location.
×

Almanac

Astronomy

Jul. 24, 2016 Rise Set
Actual Time
Civil Twilight
Nautical Twilight
Astronomical Twilight
Moon
Length of Visible Light
Length of Day
Tomorrow will be .
, % of the Moon is Illuminated

Today's Extremes

Country Highs Country Lows

Community

WunderPhotos

Upload Photos

1,927,041 photos uploaded!

WunderBlog® & News

Nearby

Air Quality

  Air Quality AQ Index Pollutant
Not available.

Snow Depth

Station Depth Elevation

Earthquake Activity

City Distance Mag. Time & Date
Minimum magnitude displayed is 2.5.

Coastal Water Temperatures

Place Temperature

Stations

Nearby Weather Stations

Station Location Temp. Windchill Dew Point Humidity Wind Precip. Elev Updated Type